createdAt,value
2023-05-19T00:01:43.940Z,39.35
2023-05-19T00:04:11.724Z,39.77
2023-05-19T00:06:39.090Z,39.70
2023-05-19T00:09:10.482Z,39.96
2023-05-19T00:11:39.642Z,38.48
2023-05-19T00:14:08.990Z,37.55
2023-05-19T00:16:37.022Z,37.83
2023-05-19T00:19:06.052Z,37.58
2023-05-19T00:21:33.080Z,37.30
2023-05-19T00:23:59.970Z,37.90
2023-05-19T00:26:27.644Z,38.15
2023-05-19T00:28:59.961Z,38.07
2023-05-19T00:31:26.986Z,38.39
2023-05-19T00:33:55.256Z,38.96
2023-05-19T00:36:22.255Z,38.23
2023-05-19T00:38:49.589Z,37.94
2023-05-19T00:41:16.718Z,37.43
2023-05-19T00:43:43.768Z,38.16
2023-05-19T00:46:10.895Z,38.51
2023-05-19T00:48:37.869Z,38.21
2023-05-19T00:51:05.712Z,38.22
2023-05-19T00:53:34.286Z,38.58
2023-05-19T00:56:03.093Z,38.58
2023-05-19T00:58:31.690Z,38.52
2023-05-19T01:01:00.292Z,38.22
2023-05-19T01:03:27.395Z,38.27
2023-05-19T01:05:54.503Z,38.00
2023-05-19T01:08:21.589Z,38.82
2023-05-19T01:10:48.650Z,39.63
2023-05-19T01:13:17.048Z,38.79
2023-05-19T01:16:06.159Z,39.11
2023-05-19T01:19:00.139Z,38.82
2023-05-19T01:21:48.633Z,38.15
2023-05-19T01:24:57.354Z,37.69
2023-05-19T01:28:12.405Z,37.43
2023-05-19T01:30:41.618Z,37.74
2023-05-19T01:33:14.820Z,37.84
2023-05-19T01:35:43.629Z,37.62
2023-05-19T01:38:12.137Z,37.51
2023-05-19T01:40:41.644Z,37.67
2023-05-19T01:43:13.672Z,37.88
2023-05-19T01:45:41.067Z,37.49
2023-05-19T01:48:10.807Z,37.31
2023-05-19T01:50:39.779Z,37.63
2023-05-19T01:53:06.823Z,37.20
2023-05-19T01:55:42.317Z,37.38
2023-05-19T01:58:36.706Z,37.27
2023-05-19T02:01:15.970Z,38.00
2023-05-19T02:04:19.513Z,37.39
2023-05-19T02:06:55.363Z,37.24
2023-05-19T02:09:32.846Z,37.80
2023-05-19T02:12:24.301Z,36.89
2023-05-19T02:15:05.814Z,36.91
2023-05-19T02:17:38.157Z,37.29
2023-05-19T02:20:06.487Z,37.65
2023-05-19T02:22:33.364Z,38.21
2023-05-19T02:25:00.474Z,38.05
2023-05-19T02:27:27.718Z,38.39
2023-05-19T02:29:54.734Z,38.23
2023-05-19T02:32:21.658Z,37.80
2023-05-19T02:34:49.077Z,37.87
2023-05-19T02:37:16.613Z,36.01
2023-05-19T02:39:43.919Z,36.70
2023-05-19T02:42:11.326Z,35.78
2023-05-19T02:44:38.413Z,34.12
2023-05-19T02:47:05.335Z,33.93
2023-05-19T02:49:32.953Z,33.49
2023-05-19T02:52:00.781Z,33.39
2023-05-19T02:54:27.786Z,30.42
2023-05-19T02:56:54.726Z,28.74
2023-05-19T02:59:21.935Z,26.16
2023-05-19T03:01:49.518Z,24.80
2023-05-19T03:04:16.693Z,23.71
2023-05-19T03:06:43.677Z,22.96
2023-05-19T03:09:10.659Z,22.49
2023-05-19T03:11:37.556Z,21.77
2023-05-19T03:14:04.580Z,20.94
2023-05-19T03:16:31.616Z,20.92
2023-05-19T03:18:58.785Z,20.66
2023-05-19T03:21:25.861Z,20.06
2023-05-19T03:23:53.433Z,20.21
2023-05-19T03:26:20.742Z,19.50
2023-05-19T03:28:47.673Z,18.55
2023-05-19T03:31:14.672Z,18.79
2023-05-19T03:33:42.007Z,18.62
2023-05-19T03:36:09.165Z,18.56
2023-05-19T03:38:38.904Z,17.94
2023-05-19T03:41:05.991Z,17.67
2023-05-19T03:43:32.951Z,16.10
2023-05-19T03:46:03.441Z,16.17
2023-05-19T03:48:48.951Z,16.53
2023-05-19T03:51:18.557Z,16.15
2023-05-19T03:53:47.251Z,15.07
2023-05-19T03:56:14.679Z,14.96
2023-05-19T03:58:41.611Z,14.80
2023-05-19T04:01:08.532Z,14.20
2023-05-19T04:03:36.003Z,13.95
2023-05-19T04:06:03.708Z,14.14
2023-05-19T04:08:32.035Z,14.69
2023-05-19T04:10:59.132Z,14.62
2023-05-19T04:13:26.186Z,15.45
2023-05-19T04:15:53.381Z,15.19
2023-05-19T04:18:20.493Z,15.60
2023-05-19T04:20:47.573Z,15.23
2023-05-19T04:23:14.540Z,15.19
2023-05-19T04:25:41.814Z,15.44
2023-05-19T04:28:08.864Z,15.55
2023-05-19T04:30:35.828Z,15.45
2023-05-19T04:33:02.927Z,16.06
2023-05-19T04:35:30.291Z,15.71
2023-05-19T04:37:59.342Z,16.22
2023-05-19T04:40:29.743Z,15.86
2023-05-19T04:42:57.382Z,15.49
2023-05-19T04:45:25.298Z,15.48
2023-05-19T04:47:54.630Z,15.35
2023-05-19T04:50:21.544Z,15.62
2023-05-19T04:52:48.691Z,15.82
2023-05-19T04:55:15.727Z,17.40
2023-05-19T04:57:42.817Z,19.17
2023-05-19T05:00:10.804Z,19.91
2023-05-19T05:02:46.034Z,21.28
2023-05-19T05:05:13.808Z,22.37
2023-05-19T05:07:41.024Z,22.00
2023-05-19T05:10:08.889Z,21.87
2023-05-19T05:12:36.221Z,22.53
2023-05-19T05:15:03.976Z,22.41
2023-05-19T05:17:31.328Z,22.64
2023-05-19T05:19:58.756Z,22.77
2023-05-19T05:22:26.044Z,22.54
2023-05-19T05:24:54.075Z,22.82
2023-05-19T05:27:21.098Z,22.69
2023-05-19T05:29:48.167Z,24.09
2023-05-19T05:32:15.846Z,23.76
2023-05-19T05:34:43.774Z,24.30
2023-05-19T05:37:13.822Z,23.95
2023-05-19T05:39:42.524Z,23.62
2023-05-19T05:42:10.974Z,22.80
2023-05-19T05:44:39.532Z,23.37
2023-05-19T05:47:07.931Z,22.15
2023-05-19T05:49:36.059Z,22.39
2023-05-19T05:52:06.388Z,20.87
2023-05-19T05:54:40.572Z,20.94
2023-05-19T05:57:09.060Z,21.07
2023-05-19T05:59:35.976Z,20.20
2023-05-19T06:02:03.474Z,21.20
2023-05-19T06:04:31.492Z,20.47
2023-05-19T06:06:58.663Z,19.32
2023-05-19T06:09:26.365Z,20.40
2023-05-19T06:11:53.413Z,21.20
2023-05-19T06:14:20.770Z,18.94
2023-05-19T06:17:10.485Z,19.54
2023-05-19T06:19:37.810Z,19.43
2023-05-19T06:22:04.837Z,18.37
2023-05-19T06:24:31.933Z,18.96
2023-05-19T06:26:58.905Z,19.26
2023-05-19T06:29:25.940Z,20.68
2023-05-19T06:31:58.165Z,21.10
2023-05-19T06:34:25.426Z,21.50
2023-05-19T06:36:52.481Z,21.23
2023-05-19T06:39:20.695Z,21.34
2023-05-19T06:41:47.659Z,20.92
2023-05-19T06:44:34.613Z,20.36
2023-05-19T06:47:01.617Z,19.90
2023-05-19T06:49:28.544Z,19.66
2023-05-19T06:51:56.042Z,19.69
2023-05-19T06:54:22.996Z,19.61
2023-05-19T06:56:50.018Z,20.33
2023-05-19T06:59:17.012Z,20.87
2023-05-19T07:01:45.316Z,19.88
2023-05-19T07:04:12.555Z,20.11
2023-05-19T07:06:40.758Z,19.51
2023-05-19T07:09:09.286Z,19.07
2023-05-19T07:11:37.903Z,19.08
2023-05-19T07:14:05.419Z,18.74
2023-05-19T07:16:32.665Z,18.36
2023-05-19T07:18:59.787Z,18.53
2023-05-19T07:21:26.879Z,19.10
2023-05-19T07:23:53.788Z,19.19
2023-05-19T07:26:20.807Z,19.29
2023-05-19T07:28:47.799Z,19.54
2023-05-19T07:31:14.892Z,19.73
2023-05-19T07:33:41.933Z,19.83
2023-05-19T07:36:08.948Z,17.83
2023-05-19T07:38:36.016Z,19.32
2023-05-19T07:41:03.955Z,19.06
2023-05-19T07:43:30.926Z,19.63
2023-05-19T07:45:58.079Z,19.58
2023-05-19T07:48:25.083Z,19.04
2023-05-19T07:50:52.992Z,18.47
2023-05-19T07:53:20.716Z,18.65
2023-05-19T07:55:47.691Z,18.59
2023-05-19T07:58:15.539Z,19.10
2023-05-19T08:00:42.647Z,18.41
2023-05-19T08:03:10.370Z,19.24
2023-05-19T08:05:38.183Z,17.97
2023-05-19T08:08:23.882Z,18.34
2023-05-19T08:10:51.654Z,18.22
2023-05-19T08:13:18.642Z,18.30
2023-05-19T08:15:45.744Z,17.89
2023-05-19T08:18:12.782Z,18.19
2023-05-19T08:20:40.256Z,18.26
2023-05-19T08:23:07.209Z,17.84
2023-05-19T08:25:34.252Z,16.58
2023-05-19T08:28:01.283Z,15.83
2023-05-19T08:30:28.359Z,16.57
2023-05-19T08:32:55.523Z,16.49
2023-05-19T08:35:22.611Z,17.24
2023-05-19T08:37:49.544Z,17.50
2023-05-19T08:40:18.036Z,17.19
2023-05-19T08:42:46.020Z,16.52
2023-05-19T08:45:13.852Z,16.65
2023-05-19T08:47:46.501Z,17.15
2023-05-19T08:50:20.114Z,17.46
2023-05-19T08:52:53.057Z,17.27
2023-05-19T08:55:23.455Z,17.30
2023-05-19T08:57:51.150Z,16.92
2023-05-19T09:00:19.419Z,17.02
2023-05-19T09:02:59.798Z,17.48
2023-05-19T09:05:28.801Z,17.96
2023-05-19T09:07:55.793Z,17.93
2023-05-19T09:10:23.109Z,18.20
2023-05-19T09:12:50.240Z,17.35
2023-05-19T09:15:18.097Z,16.80
2023-05-19T09:17:47.887Z,15.97
2023-05-19T09:20:17.336Z,16.28
2023-05-19T09:22:45.104Z,15.94
2023-05-19T09:25:19.476Z,15.95
2023-05-19T09:27:47.412Z,16.33
2023-05-19T09:30:15.585Z,16.17
2023-05-19T09:32:43.826Z,16.44
2023-05-19T09:35:12.401Z,16.82
2023-05-19T09:37:40.841Z,17.46
2023-05-19T09:40:12.475Z,16.98
2023-05-19T09:42:42.101Z,17.20
2023-05-19T09:45:09.419Z,17.78
2023-05-19T09:47:38.081Z,17.47
2023-05-19T09:50:09.834Z,18.20
2023-05-19T09:52:39.999Z,18.27
2023-05-19T09:55:10.928Z,18.53
2023-05-19T09:57:39.039Z,18.33
2023-05-19T10:00:11.531Z,18.45
2023-05-19T10:02:42.219Z,17.90
2023-05-19T10:05:12.959Z,16.83
2023-05-19T10:07:41.080Z,16.47
2023-05-19T10:10:13.406Z,16.99
2023-05-19T10:12:41.162Z,16.85
2023-05-19T10:15:10.503Z,17.27
2023-05-19T10:17:42.860Z,17.51
2023-05-19T10:20:17.349Z,18.06
2023-05-19T10:22:46.614Z,17.31
2023-05-19T10:25:14.099Z,17.24
2023-05-19T10:27:44.568Z,16.83
2023-05-19T10:30:16.522Z,17.42
2023-05-19T10:32:46.907Z,17.22
2023-05-19T10:35:28.418Z,17.22
2023-05-19T10:38:24.476Z,16.31
2023-05-19T10:41:10.262Z,16.04
2023-05-19T10:43:39.905Z,15.79
2023-05-19T10:46:07.048Z,15.12
2023-05-19T10:48:35.200Z,15.29
2023-05-19T10:51:02.827Z,14.97
2023-05-19T10:53:33.450Z,15.20
2023-05-19T10:56:02.352Z,15.44
2023-05-19T10:58:50.481Z,15.74
2023-05-19T11:01:19.548Z,15.33
2023-05-19T11:03:56.029Z,15.66
2023-05-19T11:06:29.973Z,16.22
2023-05-19T11:09:10.326Z,16.55
2023-05-19T11:11:52.107Z,16.26
2023-05-19T11:14:21.829Z,16.13
2023-05-19T11:16:50.395Z,16.65
2023-05-19T11:19:27.598Z,16.58
2023-05-19T11:21:55.324Z,17.11
2023-05-19T11:24:46.579Z,17.05
2023-05-19T11:27:33.984Z,16.21
2023-05-19T11:30:02.618Z,16.75
2023-05-19T11:32:31.077Z,16.89
2023-05-19T11:34:58.362Z,16.88
2023-05-19T11:37:25.662Z,16.85
2023-05-19T11:39:53.302Z,16.42
2023-05-19T11:42:20.790Z,16.61
2023-05-19T11:44:49.474Z,17.05
2023-05-19T11:47:17.160Z,16.28
2023-05-19T11:50:04.688Z,16.78
2023-05-19T11:52:32.201Z,16.83
2023-05-19T11:55:02.291Z,17.44
2023-05-19T11:57:29.483Z,17.92
2023-05-19T11:59:56.826Z,18.78
2023-05-19T12:02:25.425Z,18.25
2023-05-19T12:04:52.878Z,18.32
2023-05-19T12:07:24.183Z,17.86
2023-05-19T12:09:52.330Z,18.55
2023-05-19T12:12:20.875Z,18.32
2023-05-19T12:14:50.004Z,18.23
2023-05-19T12:17:21.341Z,17.90
2023-05-19T12:19:49.262Z,18.58
2023-05-19T12:22:18.120Z,18.17
2023-05-19T12:24:47.391Z,18.40
2023-05-19T12:27:23.627Z,18.08
2023-05-19T12:29:51.610Z,18.80
2023-05-19T12:32:18.659Z,18.61
2023-05-19T12:34:45.723Z,18.82
2023-05-19T12:37:13.099Z,18.74
2023-05-19T12:39:42.205Z,18.34
2023-05-19T12:42:10.475Z,16.79
2023-05-19T12:44:49.501Z,16.29
2023-05-19T12:47:17.503Z,16.60
2023-05-19T12:50:00.760Z,16.48
2023-05-19T12:52:29.567Z,16.39
2023-05-19T12:55:00.574Z,17.04
2023-05-19T12:57:28.729Z,17.20
2023-05-19T13:00:00.989Z,18.09
2023-05-19T13:02:28.678Z,18.39
2023-05-19T13:04:55.778Z,18.78
2023-05-19T13:07:25.262Z,19.05
2023-05-19T13:09:54.785Z,18.92
2023-05-19T13:12:21.894Z,18.87
2023-05-19T13:14:48.839Z,18.93
2023-05-19T13:17:15.714Z,19.32
2023-05-19T13:19:43.010Z,19.54
2023-05-19T13:22:10.190Z,19.57
2023-05-19T13:24:37.436Z,19.34
2023-05-19T13:27:06.216Z,19.47
2023-05-19T13:29:33.671Z,19.40
2023-05-19T13:32:01.618Z,19.04
2023-05-19T13:34:29.022Z,18.59
2023-05-19T13:36:56.097Z,18.51
2023-05-19T13:39:25.643Z,18.38
2023-05-19T13:41:52.848Z,18.81
2023-05-19T13:44:19.902Z,18.77
2023-05-19T13:46:48.490Z,19.25
2023-05-19T13:49:17.196Z,19.26
2023-05-19T13:51:44.481Z,20.27
2023-05-19T13:54:11.998Z,18.84
2023-05-19T13:56:39.754Z,18.50
2023-05-19T13:59:07.109Z,18.36
2023-05-19T14:01:34.160Z,18.69
2023-05-19T14:04:01.486Z,18.12
2023-05-19T14:06:28.808Z,18.15
2023-05-19T14:08:55.920Z,18.08
2023-05-19T14:11:23.210Z,18.29
2023-05-19T14:13:52.522Z,18.66
2023-05-19T14:16:20.420Z,18.22
2023-05-19T14:18:47.986Z,19.34
2023-05-19T14:21:15.857Z,18.92
2023-05-19T14:23:43.161Z,18.73
2023-05-19T14:26:10.438Z,18.70
2023-05-19T14:28:37.741Z,17.88
2023-05-19T14:31:04.985Z,18.10
2023-05-19T14:33:35.232Z,17.43
2023-05-19T14:36:02.913Z,17.97
2023-05-19T14:38:32.581Z,17.87
2023-05-19T14:40:59.732Z,17.87
2023-05-19T14:43:27.269Z,17.72
2023-05-19T14:45:55.516Z,17.53
2023-05-19T14:48:22.868Z,18.52
2023-05-19T14:50:50.136Z,17.72
2023-05-19T14:53:17.217Z,18.58
2023-05-19T14:55:44.358Z,18.65
2023-05-19T14:58:26.773Z,19.28
2023-05-19T15:00:57.956Z,20.62
2023-05-19T15:03:25.403Z,21.58
2023-05-19T15:05:52.899Z,22.10
2023-05-19T15:08:20.173Z,22.79
2023-05-19T15:10:51.476Z,22.29
2023-05-19T15:13:18.971Z,22.53
2023-05-19T15:15:46.284Z,23.26
2023-05-19T15:18:13.779Z,24.01
2023-05-19T15:20:41.081Z,23.86
2023-05-19T15:23:08.443Z,23.90
2023-05-19T15:25:35.773Z,24.04
2023-05-19T15:28:03.356Z,24.81
2023-05-19T15:30:30.693Z,25.09
2023-05-19T15:33:00.391Z,26.30
2023-05-19T15:35:27.678Z,26.74
2023-05-19T15:37:54.916Z,27.23
2023-05-19T15:40:22.257Z,27.11
2023-05-19T15:42:49.700Z,27.60
2023-05-19T15:45:17.033Z,27.31
2023-05-19T15:47:44.321Z,29.91
2023-05-19T15:50:11.687Z,30.64
2023-05-19T15:52:39.765Z,30.85
2023-05-19T15:55:08.389Z,31.52
2023-05-19T15:57:35.931Z,33.75
2023-05-19T16:00:03.204Z,34.80
2023-05-19T16:02:32.834Z,35.39
2023-05-19T16:05:00.097Z,36.16
2023-05-19T16:07:27.580Z,36.64
2023-05-19T16:09:55.640Z,37.13
2023-05-19T16:12:23.725Z,36.81
2023-05-19T16:14:51.169Z,36.53
2023-05-19T16:17:18.434Z,37.30
2023-05-19T16:19:45.801Z,37.08
2023-05-19T16:22:13.157Z,36.74
2023-05-19T16:24:40.407Z,37.06
2023-05-19T16:27:07.661Z,37.27
2023-05-19T16:29:34.835Z,36.99
2023-05-19T16:32:02.203Z,37.38
2023-05-19T16:34:30.666Z,36.70
2023-05-19T16:36:58.043Z,37.12
2023-05-19T16:39:25.322Z,37.35
2023-05-19T16:41:52.355Z,37.07
2023-05-19T16:44:19.754Z,36.93
2023-05-19T16:46:47.188Z,37.64
2023-05-19T16:49:14.465Z,37.68
2023-05-19T16:51:42.137Z,37.30
2023-05-19T16:54:11.363Z,36.81
2023-05-19T16:56:38.879Z,37.43
2023-05-19T16:59:08.795Z,37.78
2023-05-19T17:01:37.429Z,37.99
2023-05-19T17:04:05.156Z,38.39
2023-05-19T17:06:32.585Z,38.66
2023-05-19T17:08:59.973Z,38.15
2023-05-19T17:11:27.370Z,38.43
2023-05-19T17:13:55.009Z,38.89
2023-05-19T17:16:24.285Z,38.61
2023-05-19T17:18:52.006Z,38.74
2023-05-19T17:21:19.603Z,38.75
2023-05-19T17:23:46.865Z,38.14
2023-05-19T17:26:14.146Z,38.57
2023-05-19T17:28:41.452Z,38.79
2023-05-19T17:31:15.606Z,38.76
2023-05-19T17:33:42.891Z,38.64
2023-05-19T17:36:10.287Z,38.69
2023-05-19T17:38:37.752Z,37.92
2023-05-19T17:41:05.383Z,38.65
2023-05-19T17:43:32.599Z,38.01
2023-05-19T17:46:01.206Z,37.79
2023-05-19T17:48:28.920Z,38.10
2023-05-19T17:50:56.197Z,38.09
2023-05-19T17:53:23.986Z,37.56
2023-05-19T17:56:01.605Z,38.06
2023-05-19T17:58:29.580Z,37.52
2023-05-19T18:00:57.188Z,38.31
2023-05-19T18:03:25.300Z,37.65
2023-05-19T18:05:54.381Z,37.84
2023-05-19T18:08:24.016Z,38.10
2023-05-19T18:10:51.612Z,38.05
2023-05-19T18:13:19.231Z,38.04
2023-05-19T18:15:47.465Z,37.98
2023-05-19T18:18:20.487Z,37.70
2023-05-19T18:20:48.937Z,37.64
2023-05-19T18:23:16.277Z,37.91
2023-05-19T18:25:49.550Z,38.33
2023-05-19T18:28:16.897Z,38.33
2023-05-19T18:30:44.161Z,38.11
2023-05-19T18:33:12.066Z,37.54
2023-05-19T18:35:40.768Z,37.79
2023-05-19T18:38:08.394Z,37.81
2023-05-19T18:40:35.959Z,37.93
2023-05-19T18:43:03.634Z,38.52
2023-05-19T18:45:31.132Z,38.25
2023-05-19T18:47:58.515Z,38.25
2023-05-19T18:50:26.328Z,37.70
2023-05-19T18:52:53.652Z,38.32
2023-05-19T18:55:21.061Z,38.69
2023-05-19T18:57:48.399Z,38.38
2023-05-19T19:00:15.804Z,39.00
2023-05-19T19:02:43.725Z,39.72
2023-05-19T19:05:13.264Z,39.58
2023-05-19T19:07:46.611Z,40.51
2023-05-19T19:10:16.645Z,41.14
2023-05-19T19:12:47.323Z,41.23
2023-05-19T19:15:34.440Z,42.19
2023-05-19T19:18:01.690Z,42.96
2023-05-19T19:20:28.937Z,42.32
2023-05-19T19:22:56.212Z,43.21
2023-05-19T19:25:23.802Z,43.18
2023-05-19T19:27:54.066Z,44.49
2023-05-19T19:30:21.464Z,44.62
2023-05-19T19:32:51.309Z,45.66
2023-05-19T19:35:22.258Z,45.46
2023-05-19T19:37:50.047Z,45.82
2023-05-19T19:40:17.219Z,44.85
2023-05-19T19:42:44.254Z,45.84
2023-05-19T19:45:14.744Z,46.57
2023-05-19T19:47:43.380Z,47.12
2023-05-19T19:50:11.445Z,47.27
2023-05-19T19:52:38.936Z,47.57
2023-05-19T19:55:06.535Z,47.99
2023-05-19T19:57:33.660Z,48.53
2023-05-19T20:00:00.987Z,48.64
2023-05-19T20:02:28.208Z,49.42
2023-05-19T20:04:55.229Z,49.21
2023-05-19T20:07:22.236Z,49.95
2023-05-19T20:09:49.271Z,50.41
2023-05-19T20:12:16.481Z,50.86
2023-05-19T20:14:43.513Z,51.64
2023-05-19T20:17:10.489Z,51.95
2023-05-19T20:19:37.573Z,52.34
2023-05-19T20:22:04.870Z,52.28
2023-05-19T20:24:31.760Z,52.85
2023-05-19T20:26:58.751Z,52.25
2023-05-19T20:29:25.674Z,52.72
2023-05-19T20:31:53.647Z,52.70
2023-05-19T20:34:21.996Z,52.89
2023-05-19T20:36:49.023Z,54.16
2023-05-19T20:39:16.037Z,53.22
2023-05-19T20:41:43.204Z,54.22
2023-05-19T20:44:10.064Z,54.12
2023-05-19T20:46:37.016Z,54.74
2023-05-19T20:49:03.952Z,54.93
2023-05-19T20:51:31.096Z,55.24
2023-05-19T20:53:58.011Z,55.51
2023-05-19T20:56:24.974Z,55.20
2023-05-19T20:58:51.880Z,55.75
2023-05-19T21:01:18.893Z,55.76
2023-05-19T21:03:45.780Z,56.52
2023-05-19T21:06:12.772Z,56.87
2023-05-19T21:08:39.627Z,56.83
2023-05-19T21:11:06.657Z,56.49
2023-05-19T21:13:33.875Z,57.03
2023-05-19T21:16:00.893Z,56.46
2023-05-19T21:18:27.821Z,56.85
2023-05-19T21:20:54.820Z,57.60
2023-05-19T21:23:22.954Z,57.73
2023-05-19T21:25:50.639Z,57.44
2023-05-19T21:28:17.554Z,57.34
2023-05-19T21:30:48.440Z,56.65
2023-05-19T21:33:15.419Z,58.00
2023-05-19T21:35:42.412Z,57.46
2023-05-19T21:38:22.632Z,57.11
2023-05-19T21:40:50.684Z,57.02
2023-05-19T21:43:17.632Z,58.05
2023-05-19T21:45:45.298Z,58.00
2023-05-19T21:48:12.306Z,58.20
2023-05-19T21:50:39.334Z,58.46
2023-05-19T21:53:06.222Z,58.37
2023-05-19T21:55:33.366Z,58.54
2023-05-19T21:58:02.402Z,59.75
2023-05-19T22:00:29.828Z,59.33
2023-05-19T22:02:56.887Z,59.62
2023-05-19T22:05:24.056Z,59.33
2023-05-19T22:07:51.117Z,59.31
2023-05-19T22:10:18.213Z,59.88
2023-05-19T22:12:45.182Z,59.73
2023-05-19T22:15:12.240Z,59.05
2023-05-19T22:17:39.467Z,58.72
2023-05-19T22:20:07.162Z,59.92
2023-05-19T22:22:34.622Z,59.27
2023-05-19T22:25:03.325Z,59.75
2023-05-19T22:27:30.273Z,59.40
2023-05-19T22:29:57.251Z,59.23
2023-05-19T22:32:24.403Z,60.20
2023-05-19T22:34:51.629Z,59.55
2023-05-19T22:37:18.576Z,59.35
2023-05-19T22:39:45.643Z,59.36
2023-05-19T22:42:12.576Z,58.57
2023-05-19T22:44:39.578Z,58.18
2023-05-19T22:47:06.606Z,58.41
2023-05-19T22:49:33.619Z,58.75
2023-05-19T22:52:00.493Z,57.99
2023-05-19T22:54:27.499Z,58.42
2023-05-19T22:56:54.510Z,58.18
2023-05-19T22:59:21.472Z,57.75
2023-05-19T23:01:48.410Z,57.67
2023-05-19T23:04:15.575Z,57.18
2023-05-19T23:06:42.516Z,58.15
2023-05-19T23:09:09.496Z,58.13
2023-05-19T23:11:36.574Z,57.92
2023-05-19T23:14:03.672Z,58.56
2023-05-19T23:16:30.624Z,58.05
2023-05-19T23:18:57.730Z,58.39
2023-05-19T23:21:24.739Z,58.06
2023-05-19T23:23:51.865Z,58.36
2023-05-19T23:26:18.774Z,58.18
2023-05-19T23:28:45.708Z,57.96
2023-05-19T23:31:12.631Z,58.91
2023-05-19T23:33:39.655Z,58.77
2023-05-19T23:36:08.164Z,58.74
2023-05-19T23:38:36.517Z,58.84
2023-05-19T23:41:04.117Z,58.80
2023-05-19T23:43:31.457Z,59.61
2023-05-19T23:45:59.021Z,59.45
2023-05-19T23:48:26.921Z,59.51
2023-05-19T23:50:53.808Z,58.79
2023-05-19T23:53:20.857Z,58.80
2023-05-19T23:55:47.825Z,58.91
2023-05-19T23:58:14.736Z,59.14
